Time;durP1;ratioP1;P1;durP2;ratioP2;P2;SDS_P1;SDS_P2;PMS_P1;PMS_P2;Temp;Humidity;BMP_temperature;BMP_pressure;BME280_temperature;BME280_humidity;BME280_pressure;Samples;Min_cycle;Max_cycle;Signal;HPM_P1;HPM_P2
2023/02/14 00:01:19;;;;;;;5.13;3.80;;;;;;;;;;5111813;28;20036;-72
2023/02/14 00:03:45;;;;;;;3.90;3.55;;;;;;;;;;5111605;27;20119;-74
2023/02/14 00:06:11;;;;;;;4.57;4.13;;;;;;;;;;5111566;28;20059;-72
2023/02/14 00:08:39;;;;;;;4.63;3.17;;;;;;;;;;5111482;28;20039;-73
2023/02/14 00:11:07;;;;;;;5.03;3.95;;;;;;;;;;5104921;28;20059;-73
2023/02/14 00:13:33;;;;;;;7.25;4.43;;;;;;;;;;5111624;28;20048;-74
2023/02/14 00:15:59;;;;;;;3.08;2.85;;;;;;;;;;5111057;28;20461;-74
2023/02/14 00:19:02;;;;;;;3.75;3.17;;;;;;;;;;5110369;28;20035;-74
2023/02/14 00:21:13;;;;;;;3.63;3.33;;;;;;;;;;5111356;28;20047;-73
2023/02/14 00:23:39;;;;;;;3.10;2.80;;;;;;;;;;5111225;28;20117;-73
2023/02/14 00:26:11;;;;;;;3.70;3.40;;;;;;;;;;5093130;28;20028;-74
2023/02/14 00:28:37;;;;;;;3.13;2.60;;;;;;;;;;5111164;28;20043;-73
2023/02/14 00:31:03;;;;;;;2.42;2.22;;;;;;;;;;5110009;28;20118;-71
2023/02/14 00:33:29;;;;;;;4.22;3.78;;;;;;;;;;5076005;28;20063;-73
2023/02/14 00:35:56;;;;;;;4.60;3.88;;;;;;;;;;5109522;28;20051;-73
2023/02/14 00:38:22;;;;;;;5.47;3.40;;;;;;;;;;5109901;28;20045;-73
2023/02/14 00:40:48;;;;;;;3.65;3.10;;;;;;;;;;5110992;28;20055;-73
2023/02/14 00:43:14;;;;;;;4.05;3.55;;;;;;;;;;5109513;28;20062;-73
2023/02/14 00:45:40;;;;;;;2.58;2.38;;;;;;;;;;5108665;28;20038;-73
2023/02/14 00:48:06;;;;;;;4.07;2.30;;;;;;;;;;5110897;28;20114;-73
2023/02/14 00:50:32;;;;;;;3.35;2.95;;;;;;;;;;5110825;28;20682;-72
2023/02/14 00:52:58;;;;;;;3.47;2.65;;;;;;;;;;5109435;28;20579;-73
2023/02/14 00:55:24;;;;;;;2.53;2.30;;;;;;;;;;5110818;28;20502;-73
2023/02/14 00:57:50;;;;;;;3.40;2.50;;;;;;;;;;5109690;28;20398;-72
2023/02/14 01:00:16;;;;;;;3.42;2.90;;;;;;;;;;5110743;28;20047;-73
2023/02/14 01:02:42;;;;;;;2.35;2.20;;;;;;;;;;5109026;28;20046;-73
2023/02/14 01:05:08;;;;;;;4.25;2.72;;;;;;;;;;5110706;28;20614;-73
2023/02/14 01:07:35;;;;;;;3.83;2.35;;;;;;;;;;5108986;28;20133;-72
2023/02/14 01:10:02;;;;;;;3.78;2.90;;;;;;;;;;5092131;28;20035;-72
2023/02/14 01:12:29;;;;;;;3.17;2.70;;;;;;;;;;5108988;28;20031;-73
2023/02/14 01:14:55;;;;;;;4.40;3.05;;;;;;;;;;5108990;28;20567;-72
2023/02/14 01:17:21;;;;;;;3.15;2.70;;;;;;;;;;5110037;28;20023;-73
2023/02/14 01:19:50;;;;;;;3.47;3.17;;;;;;;;;;5109994;28;20099;-72
2023/02/14 01:22:16;;;;;;;2.72;2.60;;;;;;;;;;5108859;28;20050;-73
2023/02/14 01:24:42;;;;;;;2.63;2.28;;;;;;;;;;5108880;28;20522;-73
2023/02/14 01:27:09;;;;;;;4.90;2.70;;;;;;;;;;5108752;28;20031;-73
2023/02/14 01:29:35;;;;;;;3.08;2.85;;;;;;;;;;5091968;28;20495;-73
2023/02/14 01:32:01;;;;;;;3.65;2.70;;;;;;;;;;5109781;28;20035;-73
2023/02/14 01:34:27;;;;;;;2.85;2.65;;;;;;;;;;5108982;28;20043;-73
2023/02/14 01:36:53;;;;;;;3.10;2.63;;;;;;;;;;5108899;28;20499;-73
2023/02/14 01:39:19;;;;;;;4.07;2.55;;;;;;;;;;5107967;28;20066;-73
2023/02/14 01:41:48;;;;;;;3.50;3.08;;;;;;;;;;5109852;28;20089;-74
2023/02/14 01:44:18;;;;;;;3.67;2.65;;;;;;;;;;5108440;28;20051;-73
2023/02/14 01:46:44;;;;;;;3.92;3.15;;;;;;;;;;5108705;28;20036;-73
2023/02/14 01:49:12;;;;;;;5.07;3.05;;;;;;;;;;5110002;28;20494;-73
2023/02/14 01:51:41;;;;;;;3.33;3.13;;;;;;;;;;5109821;28;20039;-72
2023/02/14 01:54:07;;;;;;;4.13;3.08;;;;;;;;;;5091712;28;20043;-72
2023/02/14 01:56:34;;;;;;;3.40;2.92;;;;;;;;;;5108558;28;20092;-73
2023/02/14 01:59:01;;;;;;;3.60;3.20;;;;;;;;;;5108330;28;20503;-73
2023/02/14 02:01:27;;;;;;;2.80;2.53;;;;;;;;;;5108548;28;20122;-73
2023/02/14 02:03:54;;;;;;;2.50;2.30;;;;;;;;;;5109502;28;20040;-73
2023/02/14 02:06:31;;;;;;;3.38;2.70;;;;;;;;;;5091695;28;20123;-73
2023/02/14 02:08:57;;;;;;;3.80;3.10;;;;;;;;;;5109304;28;20035;-73
2023/02/14 02:11:23;;;;;;;4.30;3.35;;;;;;;;;;5109613;28;20043;-73
2023/02/14 02:13:49;;;;;;;3.80;2.97;;;;;;;;;;5109413;28;20054;-73
2023/02/14 02:16:55;;;;;;;3.35;3.00;;;;;;;;;;5094349;28;20411;-73
2023/02/14 02:19:20;;;;;;;4.05;3.03;;;;;;;;;;5109618;28;20028;-74
2023/02/14 02:21:50;;;;;;;2.80;2.58;;;;;;;;;;5108007;28;20043;-73
2023/02/14 02:24:20;;;;;;;4.38;2.70;;;;;;;;;;5108231;28;20039;-74
2023/02/14 02:27:01;;;;;;;3.78;3.00;;;;;;;;;;5108020;28;20030;-74
2023/02/14 02:29:27;;;;;;;3.17;2.85;;;;;;;;;;5108652;28;20444;-74
2023/02/14 02:32:02;;;;;;;5.88;2.85;;;;;;;;;;5109302;28;20106;-75
2023/02/14 02:34:49;;;;;;;6.57;2.75;;;;;;;;;;5091339;28;20052;-73
2023/02/14 02:37:20;;;;;;;2.55;2.40;;;;;;;;;;5109407;28;20036;-73
2023/02/14 02:39:56;;;;;;;3.65;3.10;;;;;;;;;;5107929;28;20523;-74
2023/02/14 02:42:31;;;;;;;4.00;3.55;;;;;;;;;;5109368;28;20044;-74
2023/02/14 02:45:05;;;;;;;3.50;3.20;;;;;;;;;;5107756;28;20055;-73
2023/02/14 02:47:32;;;;;;;3.55;3.17;;;;;;;;;;5109271;28;20035;-74
2023/02/14 02:53:02;;;;;;;2.70;2.50;;;;;;;;;;5107916;28;20122;-73
2023/02/14 02:58:34;;;;;;;3.47;2.42;;;;;;;;;;5107998;28;20044;-75
2023/02/14 03:01:01;;;;;;;2.92;2.63;;;;;;;;;;5073275;28;20229;-73
2023/02/14 03:06:11;;;;;;;2.45;2.25;;;;;;;;;;5093348;28;20032;-73
2023/02/14 03:08:37;;;;;;;3.50;2.50;;;;;;;;;;5107929;28;20032;-74
2023/02/14 03:11:03;;;;;;;2.95;2.53;;;;;;;;;;5069934;28;20429;-74
2023/02/14 03:13:48;;;;;;;2.63;2.38;;;;;;;;;;5107903;28;20162;-74
2023/02/14 03:16:33;;;;;;;2.60;2.40;;;;;;;;;;5107329;28;20032;-74
2023/02/14 03:22:07;;;;;;;2.50;2.30;;;;;;;;;;5096466;28;20518;-72
2023/02/14 03:24:44;;;;;;;3.42;3.13;;;;;;;;;;5110404;28;20039;-74
2023/02/14 03:27:31;;;;;;;3.08;2.88;;;;;;;;;;5111413;28;20522;-74
2023/02/14 03:30:02;;;;;;;2.70;2.50;;;;;;;;;;5111054;28;20043;-74
2023/02/14 03:32:44;;;;;;;2.03;1.92;;;;;;;;;;5110643;28;20036;-75
2023/02/14 03:35:12;;;;;;;2.90;2.70;;;;;;;;;;5109149;28;20530;-74
2023/02/14 03:37:51;;;;;;;2.33;2.22;;;;;;;;;;5108548;28;20040;-74
2023/02/14 03:40:29;;;;;;;2.47;2.30;;;;;;;;;;5112174;28;20031;-75
2023/02/14 03:42:56;;;;;;;2.70;2.50;;;;;;;;;;5073345;28;20035;-74
2023/02/14 03:45:24;;;;;;;4.55;2.40;;;;;;;;;;5112017;27;20042;-74
2023/02/14 03:47:50;;;;;;;2.33;2.22;;;;;;;;;;5110400;28;20047;-75
2023/02/14 03:50:17;;;;;;;2.63;2.42;;;;;;;;;;5076937;28;20417;-75
2023/02/14 03:52:43;;;;;;;3.10;2.42;;;;;;;;;;5111956;28;20031;-74
2023/02/14 03:55:09;;;;;;;2.50;2.30;;;;;;;;;;5111814;28;20478;-75
2023/02/14 03:57:35;;;;;;;2.40;2.30;;;;;;;;;;5110407;28;20415;-75
2023/02/14 04:00:01;;;;;;;2.28;2.17;;;;;;;;;;5110339;28;20125;-75
2023/02/14 04:02:38;;;;;;;2.58;2.42;;;;;;;;;;5109056;28;20031;-75
2023/02/14 04:05:07;;;;;;;2.67;1.90;;;;;;;;;;5092062;28;20031;-74
2023/02/14 04:07:33;;;;;;;2.15;2.03;;;;;;;;;;5109089;28;20031;-74
2023/02/14 04:09:59;;;;;;;1.88;1.75;;;;;;;;;;5110167;28;20545;-74
2023/02/14 04:12:29;;;;;;;3.65;1.80;;;;;;;;;;5109068;28;20031;-75
2023/02/14 04:14:54;;;;;;;3.08;2.28;;;;;;;;;;5086916;28;20109;-76
2023/02/14 04:20:05;;;;;;;2.03;1.92;;;;;;;;;;5110091;28;20036;-76
2023/02/14 04:22:31;;;;;;;3.95;2.35;;;;;;;;;;5111534;28;20023;-75
2023/02/14 04:24:57;;;;;;;2.00;1.90;;;;;;;;;;5111610;28;20045;-76
2023/02/14 04:27:23;;;;;;;6.82;2.10;;;;;;;;;;5108066;28;20058;-76
2023/02/14 04:29:49;;;;;;;3.45;2.30;;;;;;;;;;5109164;27;20042;-76
2023/02/14 04:32:16;;;;;;;2.65;2.40;;;;;;;;;;5099616;28;20027;-74
2023/02/14 04:34:42;;;;;;;2.60;2.40;;;;;;;;;;5109112;28;20123;-75
2023/02/14 04:37:08;;;;;;;2.00;1.90;;;;;;;;;;5120491;28;20562;-74
2023/02/14 04:39:34;;;;;;;2.80;2.60;;;;;;;;;;5121532;28;20054;-74
2023/02/14 04:42:00;;;;;;;2.80;2.60;;;;;;;;;;5120986;28;20061;-74
2023/02/14 04:44:27;;;;;;;5.45;2.58;;;;;;;;;;5082328;28;20072;-75
2023/02/14 04:46:53;;;;;;;2.60;2.40;;;;;;;;;;5092596;28;20598;-75
2023/02/14 04:49:19;;;;;;;3.30;3.05;;;;;;;;;;5090149;28;20035;-74
2023/02/14 04:51:45;;;;;;;2.38;2.28;;;;;;;;;;5106701;28;20137;-74
2023/02/14 04:54:11;;;;;;;2.55;2.30;;;;;;;;;;5110388;28;20040;-76
2023/02/14 04:56:37;;;;;;;6.60;2.92;;;;;;;;;;5110871;28;20182;-74
2023/02/14 04:59:03;;;;;;;2.58;2.45;;;;;;;;;;5101506;28;20477;-76
2023/02/14 05:01:29;;;;;;;2.40;2.30;;;;;;;;;;5104377;28;20100;-77
2023/02/14 05:03:55;;;;;;;2.63;2.42;;;;;;;;;;5100495;28;20846;-75
2023/02/14 05:06:21;;;;;;;2.80;2.60;;;;;;;;;;5105105;28;20035;-75
2023/02/14 05:08:47;;;;;;;2.83;2.63;;;;;;;;;;5106147;28;20047;-76
2023/02/14 05:11:13;;;;;;;3.90;2.47;;;;;;;;;;5104892;28;20028;-75
2023/02/14 05:13:39;;;;;;;3.75;2.40;;;;;;;;;;5107452;28;20575;-77
2023/02/14 05:16:05;;;;;;;4.10;2.70;;;;;;;;;;5108015;28;20031;-75
2023/02/14 05:18:31;;;;;;;3.47;2.50;;;;;;;;;;5106538;28;20043;-77
2023/02/14 05:20:57;;;;;;;3.33;2.45;;;;;;;;;;5097458;27;20032;-75
2023/02/14 05:23:23;;;;;;;2.78;1.98;;;;;;;;;;5097700;28;20040;-76
2023/02/14 05:25:50;;;;;;;2.35;2.22;;;;;;;;;;5096156;28;20028;-75
2023/02/14 05:28:15;;;;;;;5.22;2.72;;;;;;;;;;5089719;28;20032;-75
2023/02/14 05:30:41;;;;;;;3.33;2.10;;;;;;;;;;5102781;28;20085;-77
2023/02/14 05:33:08;;;;;;;2.35;2.15;;;;;;;;;;5107866;28;20043;-76
2023/02/14 05:35:34;;;;;;;2.10;2.00;;;;;;;;;;5104657;28;20058;-75
2023/02/14 05:38:00;;;;;;;2.15;2.00;;;;;;;;;;5109123;28;20031;-75
2023/02/14 05:40:26;;;;;;;1.88;1.80;;;;;;;;;;5090870;28;20089;-76
2023/02/14 05:42:52;;;;;;;2.20;2.00;;;;;;;;;;5089224;28;20059;-75
2023/02/14 05:45:18;;;;;;;2.72;2.22;;;;;;;;;;5108561;28;20131;-76
2023/02/14 05:47:44;;;;;;;3.78;1.85;;;;;;;;;;5091177;28;20115;-76
2023/02/14 05:50:13;;;;;;;3.72;2.38;;;;;;;;;;5091031;28;20392;-76
2023/02/14 05:52:39;;;;;;;2.78;2.40;;;;;;;;;;5107851;28;20039;-75
2023/02/14 05:55:12;;;;;;;2.30;2.20;;;;;;;;;;5090654;28;20039;-77
2023/02/14 05:57:43;;;;;;;3.33;2.10;;;;;;;;;;5104148;28;20543;-77
2023/02/14 06:00:10;;;;;;;6.63;2.42;;;;;;;;;;5103084;28;20051;-76
2023/02/14 06:02:39;;;;;;;3.88;3.05;;;;;;;;;;5098575;28;20027;-75
2023/02/14 06:05:05;;;;;;;13.32;4.70;;;;;;;;;;5101154;28;20063;-76
2023/02/14 06:07:32;;;;;;;4.88;3.90;;;;;;;;;;5089651;28;20089;-76
2023/02/14 06:09:57;;;;;;;4.65;3.38;;;;;;;;;;5092523;28;20055;-75
2023/02/14 06:12:23;;;;;;;3.88;3.00;;;;;;;;;;5101290;28;20070;-76
2023/02/14 06:14:50;;;;;;;8.30;2.92;;;;;;;;;;5089174;28;20035;-76
2023/02/14 06:17:15;;;;;;;2.70;2.50;;;;;;;;;;5088432;28;20591;-77
2023/02/14 06:19:42;;;;;;;2.30;2.20;;;;;;;;;;5088753;28;20503;-77
2023/02/14 06:22:08;;;;;;;4.55;2.50;;;;;;;;;;5100464;28;20080;-76
2023/02/14 06:24:34;;;;;;;3.65;2.50;;;;;;;;;;5104053;28;20470;-74
2023/02/14 06:27:00;;;;;;;5.85;3.88;;;;;;;;;;5106200;28;20063;-75
2023/02/14 06:29:26;;;;;;;3.42;2.30;;;;;;;;;;5107183;28;20103;-76
2023/02/14 06:31:55;;;;;;;4.07;2.25;;;;;;;;;;5108375;28;20039;-76
2023/02/14 06:34:21;;;;;;;2.50;2.40;;;;;;;;;;5105702;28;20051;-77
2023/02/14 06:36:47;;;;;;;2.85;2.42;;;;;;;;;;5106525;28;20127;-77
2023/02/14 06:39:13;;;;;;;2.53;2.25;;;;;;;;;;5106413;28;20522;-74
2023/02/14 06:41:43;;;;;;;3.05;2.03;;;;;;;;;;5106915;28;20036;-75
2023/02/14 06:44:09;;;;;;;2.83;2.60;;;;;;;;;;5106519;28;20447;-75
2023/02/14 06:46:35;;;;;;;2.85;2.40;;;;;;;;;;5102531;28;20500;-74
2023/02/14 06:49:01;;;;;;;5.03;3.15;;;;;;;;;;5108170;28;20099;-75
2023/02/14 06:51:27;;;;;;;3.83;3.20;;;;;;;;;;5107653;28;20407;-75
2023/02/14 06:53:53;;;;;;;3.83;2.35;;;;;;;;;;5093861;28;20035;-74
2023/02/14 06:56:19;;;;;;;3.30;3.05;;;;;;;;;;5102253;28;20039;-75
2023/02/14 06:58:45;;;;;;;3.28;2.70;;;;;;;;;;5112203;28;20040;-76
2023/02/14 07:01:11;;;;;;;3.25;2.60;;;;;;;;;;5112123;28;20108;-76
2023/02/14 07:03:38;;;;;;;5.03;2.35;;;;;;;;;;5110397;28;20069;-76
2023/02/14 07:06:04;;;;;;;2.53;2.33;;;;;;;;;;5111887;28;20035;-74
2023/02/14 07:08:30;;;;;;;4.88;2.40;;;;;;;;;;5111474;28;20035;-75
2023/02/14 07:10:56;;;;;;;3.10;2.28;;;;;;;;;;5112077;28;20091;-76
2023/02/14 07:13:22;;;;;;;3.15;2.22;;;;;;;;;;5110048;28;20101;-77
2023/02/14 07:15:48;;;;;;;3.25;2.22;;;;;;;;;;5112313;28;20119;-73
2023/02/14 07:18:14;;;;;;;2.47;2.17;;;;;;;;;;5108114;28;20122;-74
2023/02/14 07:20:40;;;;;;;2.85;2.55;;;;;;;;;;5105280;28;20143;-73
2023/02/14 07:23:06;;;;;;;4.93;2.50;;;;;;;;;;5109658;28;20114;-74
2023/02/14 07:25:31;;;;;;;2.80;2.50;;;;;;;;;;5090052;28;20040;-73
2023/02/14 07:27:57;;;;;;;2.40;2.25;;;;;;;;;;5106591;28;20067;-74
2023/02/14 07:30:24;;;;;;;5.28;2.45;;;;;;;;;;5093016;28;20044;-73
2023/02/14 07:32:50;;;;;;;3.42;2.40;;;;;;;;;;5110020;28;20107;-73
2023/02/14 07:35:16;;;;;;;3.53;2.63;;;;;;;;;;5111408;28;20032;-72
2023/02/14 07:37:42;;;;;;;2.90;2.45;;;;;;;;;;5111207;28;20104;-73
2023/02/14 07:40:08;;;;;;;2.17;1.98;;;;;;;;;;5110052;28;20036;-73
2023/02/14 07:42:34;;;;;;;6.88;2.13;;;;;;;;;;5100495;28;20081;-73
2023/02/14 07:45:00;;;;;;;2.65;2.10;;;;;;;;;;5104439;28;20149;-74
2023/02/14 07:47:26;;;;;;;2.90;2.13;;;;;;;;;;5105519;28;20457;-73
2023/02/14 07:49:52;;;;;;;5.05;2.72;;;;;;;;;;5109876;28;20044;-74
2023/02/14 07:52:18;;;;;;;2.40;2.15;;;;;;;;;;5107464;28;20521;-74
2023/02/14 07:54:44;;;;;;;2.83;2.67;;;;;;;;;;5110953;28;20070;-76
2023/02/14 07:57:11;;;;;;;2.60;2.40;;;;;;;;;;5109555;28;20453;-75
2023/02/14 07:59:36;;;;;;;4.43;2.55;;;;;;;;;;5111172;28;20135;-76
2023/02/14 08:02:02;;;;;;;4.32;2.72;;;;;;;;;;5110817;28;20473;-76
2023/02/14 08:04:28;;;;;;;4.05;2.38;;;;;;;;;;5111257;27;20039;-77
2023/02/14 08:06:55;;;;;;;2.90;2.33;;;;;;;;;;5106739;28;20044;-74
2023/02/14 08:09:24;;;;;;;2.25;2.08;;;;;;;;;;5109574;28;20055;-74
2023/02/14 08:14:35;;;;;;;6.20;2.90;;;;;;;;;;5110943;28;20183;-74
2023/02/14 08:17:01;;;;;;;4.13;2.45;;;;;;;;;;5110922;28;20075;-74
2023/02/14 08:19:27;;;;;;;2.30;2.10;;;;;;;;;;5109573;28;20130;-75
2023/02/14 08:21:53;;;;;;;4.75;2.70;;;;;;;;;;5109195;28;20024;-74
2023/02/14 08:24:19;;;;;;;2.80;2.60;;;;;;;;;;5109730;28;20411;-76
2023/02/14 08:26:45;;;;;;;7.07;3.40;;;;;;;;;;5109795;28;20107;-77
2023/02/14 08:29:11;;;;;;;3.33;3.03;;;;;;;;;;5083719;28;20130;-76
2023/02/14 08:31:38;;;;;;;5.95;3.50;;;;;;;;;;5102806;28;20039;-76
2023/02/14 08:34:04;;;;;;;7.10;3.47;;;;;;;;;;5099563;28;20199;-74
2023/02/14 08:36:30;;;;;;;3.85;3.10;;;;;;;;;;5108280;28;20036;-73
2023/02/14 08:38:56;;;;;;;3.95;2.08;;;;;;;;;;5098037;28;20190;-74
2023/02/14 08:41:22;;;;;;;4.78;2.50;;;;;;;;;;5110068;28;20041;-73
2023/02/14 08:43:48;;;;;;;7.68;2.65;;;;;;;;;;5108912;28;20293;-74
2023/02/14 08:46:15;;;;;;;2.25;2.03;;;;;;;;;;5091622;28;20402;-74
2023/02/14 08:48:42;;;;;;;2.50;2.30;;;;;;;;;;5110024;28;20602;-75
2023/02/14 08:51:10;;;;;;;2.45;2.35;;;;;;;;;;5105745;28;20043;-73
2023/02/14 08:53:37;;;;;;;2.72;2.60;;;;;;;;;;5103985;28;20526;-74
2023/02/14 08:56:06;;;;;;;2.75;2.42;;;;;;;;;;5107500;28;20038;-75
2023/02/14 08:58:34;;;;;;;4.00;2.50;;;;;;;;;;5108078;28;20059;-74
2023/02/14 09:01:00;;;;;;;4.20;2.63;;;;;;;;;;5109906;27;20031;-74
2023/02/14 09:03:26;;;;;;;4.10;2.10;;;;;;;;;;5109338;28;20036;-74
2023/02/14 09:05:52;;;;;;;2.63;2.15;;;;;;;;;;5107980;28;20122;-73
2023/02/14 09:08:25;;;;;;;3.40;2.47;;;;;;;;;;5109182;28;20166;-74
2023/02/14 09:10:54;;;;;;;2.20;2.03;;;;;;;;;;5107650;28;20024;-73
2023/02/14 09:13:23;;;;;;;3.22;2.88;;;;;;;;;;5110057;28;20210;-76
2023/02/14 09:15:49;;;;;;;4.57;2.80;;;;;;;;;;5113737;28;20602;-76
2023/02/14 09:18:41;;;;;;;3.30;3.00;;;;;;;;;;5108307;28;20118;-78
2023/02/14 09:21:11;;;;;;;3.30;3.00;;;;;;;;;;5099106;28;20495;-75
2023/02/14 09:23:39;;;;;;;3.95;2.78;;;;;;;;;;5107657;28;20043;-74
2023/02/14 09:26:13;;;;;;;3.85;3.22;;;;;;;;;;5107343;28;20372;-75
2023/02/14 09:28:39;;;;;;;3.60;3.03;;;;;;;;;;5097082;28;20139;-75
2023/02/14 09:31:13;;;;;;;3.47;2.80;;;;;;;;;;5107667;28;20106;-76
2023/02/14 09:36:24;;;;;;;4.15;3.17;;;;;;;;;;5105308;28;20380;-75
2023/02/14 09:38:51;;;;;;;4.68;3.20;;;;;;;;;;5109124;28;20118;-74
2023/02/14 09:41:30;;;;;;;3.80;3.50;;;;;;;;;;5071991;28;20088;-75
2023/02/14 09:44:06;;;;;;;8.05;5.55;;;;;;;;;;5098801;28;20056;-73
2023/02/14 09:46:39;;;;;;;4.25;3.78;;;;;;;;;;5099921;28;20039;-73
2023/02/14 09:49:06;;;;;;;5.78;3.90;;;;;;;;;;5090521;28;20506;-73
2023/02/14 09:51:32;;;;;;;5.50;3.72;;;;;;;;;;5090945;28;20151;-75
2023/02/14 09:53:58;;;;;;;4.10;3.75;;;;;;;;;;5099636;28;20118;-75
2023/02/14 09:56:31;;;;;;;3.47;3.13;;;;;;;;;;5108631;28;20444;-74
2023/02/14 09:59:08;;;;;;;3.72;3.50;;;;;;;;;;5107437;28;20042;-74
2023/02/14 10:01:34;;;;;;;4.80;3.83;;;;;;;;;;5106975;28;20092;-75
2023/02/14 10:04:00;;;;;;;6.15;4.78;;;;;;;;;;5108480;28;20040;-76
2023/02/14 10:06:45;;;;;;;4.38;4.00;;;;;;;;;;5108002;28;20409;-75
2023/02/14 10:09:24;;;;;;;4.25;3.50;;;;;;;;;;5106354;28;20044;-76
2023/02/14 10:11:50;;;;;;;2.10;2.00;;;;;;;;;;5105587;28;20054;-75
2023/02/14 10:14:16;;;;;;;5.45;4.97;;;;;;;;;;5069924;28;20761;-74
2023/02/14 10:16:46;;;;;;;5.75;4.10;;;;;;;;;;5106997;28;20067;-78
2023/02/14 10:19:15;;;;;;;3.63;3.40;;;;;;;;;;5086262;28;20500;-74
2023/02/14 10:21:42;;;;;;;3.97;3.42;;;;;;;;;;5107677;28;20023;-74
2023/02/14 10:24:08;;;;;;;5.00;4.60;;;;;;;;;;5089902;28;20040;-73
2023/02/14 10:26:36;;;;;;;5.43;5.03;;;;;;;;;;5105636;28;20039;-74
2023/02/14 10:29:02;;;;;;;5.78;5.05;;;;;;;;;;5107268;28;20035;-73
2023/02/14 10:31:33;;;;;;;4.50;4.10;;;;;;;;;;5106299;28;20042;-75
2023/02/14 10:34:02;;;;;;;4.05;3.75;;;;;;;;;;5108208;28;20698;-73
2023/02/14 10:36:47;;;;;;;3.88;3.30;;;;;;;;;;5107649;28;20483;-73
2023/02/14 10:39:16;;;;;;;3.13;2.92;;;;;;;;;;5106035;28;20034;-72
2023/02/14 10:41:42;;;;;;;3.75;3.50;;;;;;;;;;5108221;28;20036;-73
2023/02/14 10:44:23;;;;;;;3.75;3.40;;;;;;;;;;5107690;28;20070;-73
2023/02/14 10:47:02;;;;;;;3.92;3.70;;;;;;;;;;5108209;28;20039;-73
2023/02/14 10:49:37;;;;;;;3.92;3.13;;;;;;;;;;5107982;28;20047;-73
2023/02/14 10:52:21;;;;;;;3.45;3.15;;;;;;;;;;5106390;28;20106;-71
2023/02/14 10:55:10;;;;;;;4.25;2.90;;;;;;;;;;5108233;28;20043;-73
2023/02/14 10:57:37;;;;;;;2.88;2.65;;;;;;;;;;5102155;28;20039;-73
2023/02/14 11:00:05;;;;;;;4.18;3.85;;;;;;;;;;5110885;28;20038;-73
2023/02/14 11:02:32;;;;;;;3.53;3.28;;;;;;;;;;5107795;28;20549;-73
2023/02/14 11:04:59;;;;;;;5.47;2.92;;;;;;;;;;5107700;28;20151;-73
2023/02/14 11:07:25;;;;;;;2.50;2.40;;;;;;;;;;5106390;28;20035;-73
2023/02/14 11:09:51;;;;;;;8.20;3.00;;;;;;;;;;5099989;28;20035;-73
2023/02/14 11:12:38;;;;;;;3.45;3.22;;;;;;;;;;5107818;28;20418;-72
2023/02/14 11:15:14;;;;;;;3.78;3.03;;;;;;;;;;5104879;28;20520;-73
2023/02/14 11:17:41;;;;;;;2.67;2.47;;;;;;;;;;5108051;28;20039;-73
2023/02/14 11:20:29;;;;;;;3.00;2.80;;;;;;;;;;5109637;28;20664;-72
2023/02/14 11:22:55;;;;;;;3.40;3.10;;;;;;;;;;5112677;28;20046;-72
2023/02/14 11:25:21;;;;;;;2.90;2.70;;;;;;;;;;5113567;28;20126;-73
2023/02/14 11:27:49;;;;;;;3.47;3.13;;;;;;;;;;5110251;28;20130;-73
2023/02/14 11:30:19;;;;;;;5.22;3.40;;;;;;;;;;5116043;28;20032;-74
2023/02/14 11:32:50;;;;;;;2.77;2.57;;;;;;;;;;5090995;28;20388;-74
2023/02/14 11:35:17;;;;;;;4.57;3.63;;;;;;;;;;5090612;28;20346;-76
2023/02/14 11:37:46;;;;;;;5.78;3.38;;;;;;;;;;5106535;28;20502;-73
2023/02/14 11:40:42;;;;;;;4.32;3.13;;;;;;;;;;5102500;28;20028;-73
2023/02/14 11:43:11;;;;;;;2.85;2.63;;;;;;;;;;5096003;28;20051;-75
2023/02/14 11:45:39;;;;;;;4.28;3.88;;;;;;;;;;5103896;28;20406;-76
2023/02/14 11:48:15;;;;;;;3.80;2.72;;;;;;;;;;5111833;28;20042;-75
2023/02/14 11:50:48;;;;;;;2.70;2.50;;;;;;;;;;5110056;28;20040;-75
2023/02/14 11:56:26;;;;;;;;;;;;;;;;;;5105344;28;20031;-73
2023/02/14 11:59:24;;;;;;;4.78;3.05;;;;;;;;;;5111433;27;19911;-76
2023/02/14 12:01:51;;;;;;;13.35;3.10;;;;;;;;;;5087861;28;20043;-74
2023/02/14 12:04:21;;;;;;;4.80;3.03;;;;;;;;;;5109735;28;20036;-74
2023/02/14 12:06:52;;;;;;;3.35;3.10;;;;;;;;;;5098215;28;20030;-73
2023/02/14 12:09:43;;;;;;;2.90;2.63;;;;;;;;;;5106628;28;20051;-74
2023/02/14 12:12:22;;;;;;;2.45;2.25;;;;;;;;;;5108959;28;20043;-77
2023/02/14 12:14:48;;;;;;;6.47;3.22;;;;;;;;;;5102019;28;20043;-76
2023/02/14 12:17:47;;;;;;;6.38;3.70;;;;;;;;;;5105131;28;20031;-76
2023/02/14 12:20:19;;;;;;;3.95;3.63;;;;;;;;;;5102222;28;20023;-75
2023/02/14 12:26:01;;;;;;;6.05;3.65;;;;;;;;;;5092106;28;20047;-76
2023/02/14 12:28:29;;;;;;;5.13;4.28;;;;;;;;;;5108041;28;20043;-77
2023/02/14 12:30:55;;;;;;;4.78;3.83;;;;;;;;;;5104107;28;20078;-75
2023/02/14 12:33:22;;;;;;;5.07;3.13;;;;;;;;;;5107714;28;20100;-76
2023/02/14 12:36:00;;;;;;;3.08;2.88;;;;;;;;;;5110973;28;20039;-75
2023/02/14 12:38:45;;;;;;;2.72;2.53;;;;;;;;;;5108448;28;20034;-76
2023/02/14 12:41:15;;;;;;;3.42;3.13;;;;;;;;;;5110054;28;20395;-76
2023/02/14 12:43:51;;;;;;;2.58;2.40;;;;;;;;;;5108319;28;20056;-76
2023/02/14 12:46:21;;;;;;;2.78;2.40;;;;;;;;;;5105797;28;20046;-76
2023/02/14 12:48:59;;;;;;;3.88;3.00;;;;;;;;;;5110374;28;20035;-77
2023/02/14 12:51:26;;;;;;;2.40;2.20;;;;;;;;;;5108237;28;20395;-77
2023/02/14 12:53:52;;;;;;;2.28;2.17;;;;;;;;;;5108212;28;20043;-76
2023/02/14 12:56:36;;;;;;;4.15;2.80;;;;;;;;;;5109300;28;20023;-76
2023/02/14 12:59:11;;;;;;;3.35;2.47;;;;;;;;;;5107625;28;20035;-76
2023/02/14 13:01:52;;;;;;;3.03;2.78;;;;;;;;;;5107636;28;20036;-76
2023/02/14 13:04:19;;;;;;;;;;;;;;;;;;5109760;28;20444;-77
2023/02/14 13:07:03;;;;;;;2.30;2.20;;;;;;;;;;5109546;28;19918;-75
2023/02/14 13:09:58;;;;;;;2.45;2.25;;;;;;;;;;5108021;28;20044;-75
2023/02/14 13:12:34;;;;;;;6.57;4.13;;;;;;;;;;5090807;28;20034;-77
2023/02/14 13:15:17;;;;;;;3.45;3.00;;;;;;;;;;5083826;28;20116;-75
2023/02/14 13:17:49;;;;;;;2.90;2.70;;;;;;;;;;5088511;28;20032;-75
2023/02/14 13:20:21;;;;;;;3.08;2.88;;;;;;;;;;5090476;28;20088;-76
2023/02/14 13:22:49;;;;;;;4.10;3.80;;;;;;;;;;5108170;28;20032;-75
2023/02/14 13:25:30;;;;;;;4.47;3.10;;;;;;;;;;5106963;28;20031;-74
2023/02/14 13:27:59;;;;;;;6.32;2.92;;;;;;;;;;5106508;28;20115;-74
2023/02/14 13:30:25;;;;;;;4.30;3.60;;;;;;;;;;5107153;28;20035;-74
2023/02/14 13:32:51;;;;;;;5.13;3.10;;;;;;;;;;5107235;28;20032;-75
2023/02/14 13:35:17;;;;;;;3.78;3.13;;;;;;;;;;5108144;28;20050;-75
2023/02/14 13:37:45;;;;;;;4.75;3.13;;;;;;;;;;5109727;28;20035;-75
2023/02/14 13:40:18;;;;;;;3.75;2.95;;;;;;;;;;5091332;28;20028;-74
2023/02/14 13:42:50;;;;;;;8.45;4.50;;;;;;;;;;5108107;28;20522;-74
2023/02/14 13:45:33;;;;;;;6.65;4.95;;;;;;;;;;5100080;28;20034;-75
2023/02/14 13:48:03;;;;;;;4.28;3.92;;;;;;;;;;5104183;28;20039;-75
2023/02/14 13:50:31;;;;;;;5.43;4.82;;;;;;;;;;5107812;28;20023;-78
2023/02/14 13:52:59;;;;;;;5.50;5.00;;;;;;;;;;5087295;28;20035;-74
2023/02/14 13:55:28;;;;;;;5.72;5.20;;;;;;;;;;5109030;28;20039;-75
2023/02/14 13:58:04;;;;;;;6.05;5.45;;;;;;;;;;5107169;27;20573;-75
2023/02/14 14:00:37;;;;;;;6.90;4.85;;;;;;;;;;5090481;28;20036;-76
2023/02/14 14:03:03;;;;;;;4.20;3.83;;;;;;;;;;5109063;28;20023;-79
2023/02/14 14:05:34;;;;;;;4.80;4.40;;;;;;;;;;5110127;28;20381;-79
2023/02/14 14:08:15;;;;;;;3.78;3.58;;;;;;;;;;5110241;28;20023;-78
2023/02/14 14:11:04;;;;;;;3.92;3.53;;;;;;;;;;5109385;28;20550;-76
2023/02/14 14:13:40;;;;;;;9.05;4.68;;;;;;;;;;5092652;28;20039;-75
2023/02/14 14:16:20;;;;;;;3.22;2.92;;;;;;;;;;5105491;28;20038;-75
2023/02/14 14:18:48;;;;;;;;;;;;;;;;;;5106180;28;20618;-75
2023/02/14 14:21:24;;;;;;;3.97;3.22;;;;;;;;;;5089127;28;19915;-75
2023/02/14 14:24:08;;;;;;;4.05;3.10;;;;;;;;;;5106368;28;20051;-75
2023/02/14 14:26:35;;;;;;;5.90;2.88;;;;;;;;;;5093617;28;20134;-75
2023/02/14 14:29:03;;;;;;;2.83;2.53;;;;;;;;;;5106548;28;20028;-75
2023/02/14 14:31:29;;;;;;;3.35;2.50;;;;;;;;;;5106347;28;20467;-74
2023/02/14 14:33:58;;;;;;;3.70;2.50;;;;;;;;;;5106655;28;20096;-75
2023/02/14 14:36:24;;;;;;;3.10;2.78;;;;;;;;;;5104970;28;20046;-74
2023/02/14 14:38:52;;;;;;;3.65;2.60;;;;;;;;;;5106638;28;20059;-75
2023/02/14 14:41:18;;;;;;;2.72;2.53;;;;;;;;;;5106500;28;20080;-75
2023/02/14 14:43:45;;;;;;;2.55;2.35;;;;;;;;;;5106224;28;20143;-76
2023/02/14 14:46:11;;;;;;;2.80;2.60;;;;;;;;;;5108393;28;20126;-76
2023/02/14 14:48:40;;;;;;;2.20;2.10;;;;;;;;;;5108490;28;20024;-75
2023/02/14 14:51:06;;;;;;;2.28;2.17;;;;;;;;;;5107427;28;20059;-76
2023/02/14 14:53:46;;;;;;;5.00;2.85;;;;;;;;;;5089055;28;20530;-77
2023/02/14 14:56:21;;;;;;;5.13;2.72;;;;;;;;;;5104731;28;20039;-73
2023/02/14 14:58:47;;;;;;;10.70;2.97;;;;;;;;;;5103877;28;20039;-72
2023/02/14 15:01:34;;;;;;;2.72;2.45;;;;;;;;;;5108247;28;20118;-73
2023/02/14 15:04:30;;;;;;;3.08;2.78;;;;;;;;;;5107887;28;20375;-73
2023/02/14 15:06:56;;;;;;;3.00;2.75;;;;;;;;;;5084373;28;20063;-73
2023/02/14 15:09:32;;;;;;;2.90;2.67;;;;;;;;;;5107756;28;20048;-73
2023/02/14 15:14:43;;;;;;;2.80;2.60;;;;;;;;;;5103857;28;20150;-73
2023/02/14 15:17:19;;;;;;;2.42;2.33;;;;;;;;;;5108379;28;20027;-73
2023/02/14 15:19:55;;;;;;;2.42;2.13;;;;;;;;;;5105199;28;20041;-74
2023/02/14 15:22:23;;;;;;;2.45;2.25;;;;;;;;;;5093757;28;20032;-74
2023/02/14 15:24:49;;;;;;;3.60;3.10;;;;;;;;;;5110358;28;20032;-74
2023/02/14 15:27:16;;;;;;;3.03;2.78;;;;;;;;;;5111896;28;20136;-74